Terminal Aerodrome Forecast
Issued by NWS

Home | Current Version | Previous Version | Text Only | Print | Product List | Glossary On
Versions: 1 2 3 4 5 6 7 8 9 10 11 12 13 14 15 16 17 18
000
FTUS41 KILN 302300
TAFLUK
TAF
KLUK 302340Z 3100/3124 21004KT 6SM -SHRA BR SCT050 OVC100
     FM310600 20003KT 3SM -SHRA BR OVC040
     FM310900 20003KT 2SM -SHRA BR OVC012
     FM311300 19006KT 5SM BR VCSH OVC009
     FM311700 20007KT P6SM VCTS BKN028CB
     FM312100 21007KT P6SM BKN040=

USA.gov is the U.S. government's official web portal to all federal, state and local government web resources and services.